Arkansas City, Kansas
Current Conditions -  °F | °C
As of 1:54 PM on Friday 28 Nov 2014 (Local Time) from KWLD Reporting Station
Clear Clear  
Wind Chill: 62°   Ceiling: Unl
Heat Index: 62°   Visibility: 10mi
Dew Point: 36°   Wind: 17mph
Humidity: 38%   Direction: 190°S
Pressure: 29.87"   Gusts: NA
Location:  37.06°N, 97.04°W
Report Text: KWLD 281954Z AUTO 19015KT 10SM CLR 17/02 A2987 RMK AO2 SLP115 T01670022
Loading
Personal Weather Stations






























Interactive Weather Map New forecast layout! Learn more

10-Day Weather Forecast

Advertisements
Track Severe Weather on mobile